Time;durP1;ratioP1;P1;durP2;ratioP2;P2;SDS_P1;SDS_P2;PMS_P1;PMS_P2;Temp;Humidity;BMP_temperature;BMP_pressure;BME280_temperature;BME280_humidity;BME280_pressure;Samples;Min_cycle;Max_cycle;Signal;HPM_P1;HPM_P2
2021/12/13 00:01:04;;;;;;;3.30;1.80;;;;;;;7.76;78.89;102149.97;5055673;28;20635;-84
2021/12/13 00:03:39;;;;;;;4.10;2.03;;;;;;;7.69;78.17;102156.81;5057462;28;20044;-84
2021/12/13 00:06:12;;;;;;;2.55;1.92;;;;;;;7.72;78.74;102148.22;5051008;28;20048;-84
2021/12/13 00:08:41;;;;;;;2.97;1.88;;;;;;;7.64;78.46;102148.09;5042294;28;20281;-84
2021/12/13 00:11:17;;;;;;;3.55;2.15;;;;;;;7.76;77.85;102154.31;5042243;28;20041;-84
2021/12/13 00:14:04;;;;;;;3.95;2.28;;;;;;;7.72;78.89;102155.09;5052961;28;20078;-84
2021/12/13 00:16:37;;;;;;;3.50;2.17;;;;;;;7.64;78.23;102160.19;5047409;28;20115;-85
2021/12/13 00:19:08;;;;;;;3.75;1.95;;;;;;;7.70;78.46;102162.88;5057354;28;20082;-84
2021/12/13 00:21:47;;;;;;;2.03;1.73;;;;;;;7.66;78.40;102158.50;5052163;28;20024;-84
2021/12/13 00:24:21;;;;;;;3.35;2.00;;;;;;;7.69;78.19;102164.56;5053810;28;20116;-84
2021/12/13 00:26:50;;;;;;;3.00;1.90;;;;;;;7.65;77.99;102167.97;5055511;28;20028;-84
2021/12/13 00:29:23;;;;;;;3.67;1.90;;;;;;;7.71;77.83;102164.59;5052302;28;20452;-84
2021/12/13 00:31:57;;;;;;;4.90;2.13;;;;;;;7.56;78.38;102161.78;5058073;28;20051;-84
2021/12/13 00:34:43;;;;;;;2.78;1.85;;;;;;;7.67;78.12;102162.81;5053065;28;20494;-85
2021/12/13 00:37:14;;;;;;;3.35;1.88;;;;;;;7.65;78.22;102162.78;5058054;28;20071;-84
2021/12/13 00:40:10;;;;;;;3.25;2.10;;;;;;;7.72;78.09;102165.47;5061270;28;20706;-84
2021/12/13 00:42:40;;;;;;;3.78;1.60;;;;;;;7.72;77.96;102168.03;5057971;28;20036;-84
2021/12/13 00:45:11;;;;;;;5.05;1.80;;;;;;;7.62;78.47;102169.63;5053078;28;20057;-84
2021/12/13 00:47:39;;;;;;;3.60;2.20;;;;;;;7.64;78.27;102170.53;5073272;28;20020;-84
2021/12/13 00:50:31;;;;;;;2.95;2.13;;;;;;;7.67;78.01;102168.84;5056956;28;20501;-84
2021/12/13 00:52:58;;;;;;;3.60;2.17;;;;;;;7.66;78.81;102171.41;5054015;28;20123;-84
2021/12/13 00:55:28;;;;;;;3.60;1.83;;;;;;;7.61;78.71;102167.91;5058041;28;20029;-84
2021/12/13 00:58:03;;;;;;;2.20;1.70;;;;;;;7.61;78.85;102171.34;5060110;28;20033;-84
2021/12/13 01:00:33;;;;;;;2.45;1.70;;;;;;;7.60;77.79;102177.38;5061174;28;20033;-84
2021/12/13 01:03:18;;;;;;;3.25;1.73;;;;;;;7.61;78.39;102175.66;5058385;28;20027;-84
2021/12/13 01:05:59;;;;;;;2.88;1.63;;;;;;;7.75;78.33;102168.09;5047416;28;20033;-84
2021/12/13 01:08:58;;;;;;;3.45;1.98;;;;;;;7.69;78.39;102174.91;5070970;28;20056;-84
2021/12/13 01:11:36;;;;;;;2.95;1.45;;;;;;;7.63;78.20;102171.38;5056781;28;20049;-84
2021/12/13 01:14:32;;;;;;;3.03;1.52;;;;;;;7.54;78.58;102176.44;5058943;28;20067;-84
2021/12/13 01:17:15;;;;;;;5.75;1.83;;;;;;;7.62;78.20;102169.63;5046702;28;20134;-84
2021/12/13 01:19:51;;;;;;;2.88;2.00;;;;;;;7.68;77.82;102174.88;5046158;28;20112;-84
2021/12/13 01:27:36;;;;;;;2.72;1.67;;;;;;;7.74;77.93;102166.34;5056578;28;20036;-84
2021/12/13 01:30:09;;;;;;;3.05;1.40;;;;;;;7.61;78.11;102173.94;5061056;28;20033;-84
2021/12/13 01:32:38;;;;;;;2.70;2.00;;;;;;;7.72;78.02;102174.09;5057030;28;20042;-84
2021/12/13 01:35:05;;;;;;;2.88;2.00;;;;;;;7.72;77.69;102179.25;5056027;28;20033;-84
2021/12/13 01:37:32;;;;;;;3.28;1.80;;;;;;;7.70;77.57;102178.38;5054170;28;20040;-84
2021/12/13 01:40:08;;;;;;;2.83;1.55;;;;;;;7.70;77.32;102181.81;5068094;28;20120;-84
2021/12/13 01:42:34;;;;;;;2.50;1.80;;;;;;;7.65;77.70;102183.47;5073076;28;20033;-84
2021/12/13 01:45:13;;;;;;;2.40;1.55;;;;;;;7.54;77.78;102177.31;5050524;28;20123;-84
2021/12/13 01:47:42;;;;;;;2.42;1.63;;;;;;;7.70;77.15;102184.41;5055558;28;21190;-84
2021/12/13 01:50:21;;;;;;;2.20;1.52;;;;;;;7.74;77.82;102174.09;5051600;28;20048;-84
2021/12/13 01:52:50;;;;;;;3.20;1.58;;;;;;;7.73;77.89;102170.66;5052419;28;20159;-84
2021/12/13 01:55:24;;;;;;;2.45;1.50;;;;;;;7.61;77.94;102171.34;5051281;28;20761;-84
2021/12/13 01:58:07;;;;;;;2.33;1.58;;;;;;;7.75;77.59;102168.97;5056358;28;20379;-84
2021/12/13 02:01:09;;;;;;;3.88;1.40;;;;;;;7.73;77.24;102157.72;5061519;28;20032;-84
2021/12/13 02:03:52;;;;;;;2.83;1.40;;;;;;;7.61;77.75;102173.94;5058811;28;20558;-84
2021/12/13 02:06:38;;;;;;;1.77;1.45;;;;;;;7.76;77.58;102177.59;5060641;28;20037;-84
2021/12/13 02:09:12;;;;;;;2.70;1.40;;;;;;;7.69;77.28;102167.16;5053977;28;20033;-84
2021/12/13 02:11:38;;;;;;;2.22;1.20;;;;;;;7.68;77.30;102167.13;5053003;28;20037;-84
2021/12/13 02:14:15;;;;;;;2.03;1.50;;;;;;;7.77;77.19;102174.13;5054729;28;20111;-84
2021/12/13 02:19:39;;;;;;;2.38;1.85;;;;;;;7.66;77.67;102176.59;5053046;28;20028;-84
2021/12/13 02:22:30;;;;;;;2.00;1.48;;;;;;;7.62;77.38;102182.56;5052102;28;20033;-84
2021/12/13 02:25:00;;;;;;;2.15;1.40;;;;;;;7.65;77.37;102186.06;5056810;28;20044;-84
2021/12/13 02:27:30;;;;;;;2.47;1.42;;;;;;;7.69;77.04;102180.09;5049350;28;20113;-84
2021/12/13 02:30:00;;;;;;;2.00;1.02;;;;;;;7.68;76.84;102188.69;5053052;28;20033;-84
2021/12/13 02:32:28;;;;;;;1.55;1.40;;;;;;;7.61;77.68;102186.84;5074123;28;20028;-84
2021/12/13 02:34:58;;;;;;;3.25;1.80;;;;;;;7.60;77.81;102192.03;5055118;28;20064;-84
2021/12/13 02:37:26;;;;;;;3.22;1.75;;;;;;;7.61;77.07;102183.44;5055253;28;20541;-84
2021/12/13 02:39:58;;;;;;;2.40;1.75;;;;;;;7.55;77.74;102183.34;5039349;28;20033;-84
2021/12/13 02:42:26;;;;;;;3.25;1.40;;;;;;;7.68;77.78;102185.22;5057417;28;20517;-84
2021/12/13 02:44:57;;;;;;;2.40;1.65;;;;;;;7.66;77.44;102176.59;5058639;28;20155;-84
2021/12/13 02:47:38;;;;;;;2.78;1.77;;;;;;;7.61;77.70;102184.28;5052703;28;20029;-84
2021/12/13 02:50:13;;;;;;;1.90;1.35;;;;;;;7.68;77.21;102174.88;5046730;28;20566;-84
2021/12/13 02:52:40;;;;;;;2.67;1.60;;;;;;;7.62;77.05;102180.84;5054368;28;20075;-84
2021/12/13 02:55:17;;;;;;;2.30;1.50;;;;;;;7.58;78.11;102184.22;5054649;28;20037;-84
2021/12/13 02:57:47;;;;;;;2.83;1.40;;;;;;;7.60;77.41;102190.31;5061210;28;20032;-84
2021/12/13 03:00:12;;;;;;;2.03;1.40;;;;;;;7.59;77.47;102191.16;5053122;28;20036;-84
2021/12/13 03:02:41;;;;;;;2.17;1.40;;;;;;;7.62;77.74;102193.78;5052016;28;20031;-84
2021/12/13 03:05:24;;;;;;;2.53;1.60;;;;;;;7.68;77.20;102191.28;5070956;28;20049;-84
2021/12/13 03:07:53;;;;;;;2.60;1.60;;;;;;;7.60;77.27;102190.31;5070269;28;20029;-84
2021/12/13 03:10:26;;;;;;;2.53;1.45;;;;;;;7.56;77.73;102190.22;5047174;28;20524;-84
2021/12/13 03:12:52;;;;;;;2.03;1.30;;;;;;;7.69;77.24;102195.63;5045695;28;20048;-84
2021/12/13 03:15:21;;;;;;;2.28;1.50;;;;;;;7.63;77.49;102195.53;5051565;28;20032;-84
2021/12/13 03:17:53;;;;;;;2.20;1.67;;;;;;;7.58;78.00;102193.72;5055049;28;20090;-84
2021/12/13 03:20:18;;;;;;;4.07;1.40;;;;;;;7.57;78.28;102192.84;5056908;28;20119;-84
2021/12/13 03:22:58;;;;;;;2.42;1.25;;;;;;;7.57;77.85;102195.44;5056301;28;20120;-84
2021/12/13 03:25:39;;;;;;;2.47;1.48;;;;;;;7.62;78.07;102198.94;5054583;28;20457;-84
2021/12/13 03:28:26;;;;;;;1.73;1.30;;;;;;;7.64;77.66;102204.16;5059446;28;20401;-84
2021/12/13 03:31:02;;;;;;;3.45;1.83;;;;;;;7.64;77.64;102201.56;5047317;28;20037;-84
2021/12/13 03:33:54;;;;;;;2.03;1.40;;;;;;;7.70;77.71;102197.31;5051343;28;20110;-84
2021/12/13 03:36:44;;;;;;;1.67;1.35;;;;;;;7.60;77.78;102202.38;5056381;28;20071;-84
2021/12/13 03:39:13;;;;;;;4.30;1.38;;;;;;;7.60;77.29;102202.38;5031824;28;20116;-84
2021/12/13 03:41:42;;;;;;;1.80;1.40;;;;;;;7.63;77.36;102199.81;5042202;28;20055;-84
2021/12/13 03:44:15;;;;;;;4.13;1.50;;;;;;;7.66;77.43;102200.75;5053127;28;20060;-84
2021/12/13 03:46:43;;;;;;;3.30;2.15;;;;;;;7.62;77.17;102198.06;5051545;28;20101;-84
2021/12/13 03:49:10;;;;;;;2.28;1.50;;;;;;;7.57;77.47;102203.19;5051323;28;20397;-84
2021/12/13 03:51:40;;;;;;;2.67;1.50;;;;;;;7.58;77.18;102207.50;5044706;28;20116;-84
2021/12/13 03:54:10;;;;;;;9.80;1.67;;;;;;;7.61;77.06;102204.13;5055201;28;20417;-84
2021/12/13 03:56:40;;;;;;;4.03;1.60;;;;;;;7.65;77.25;102214.50;5051958;28;20098;-84
2021/12/13 03:59:14;;;;;;;1.38;1.17;;;;;;;7.58;77.88;102206.66;5054689;28;20036;-84
2021/12/13 04:01:53;;;;;;;6.63;1.30;;;;;;;7.52;77.97;102211.75;5047652;28;20036;-84
2021/12/13 04:04:23;;;;;;;2.10;1.40;;;;;;;7.65;77.24;102214.50;5054731;28;20056;-84
2021/12/13 04:06:56;;;;;;;2.65;1.52;;;;;;;7.50;78.15;102216.00;5061606;28;20131;-84
2021/12/13 04:09:24;;;;;;;1.35;1.10;;;;;;;7.60;77.87;102217.88;5053025;28;20029;-84
2021/12/13 04:11:55;;;;;;;3.92;1.55;;;;;;;7.58;77.65;102217.00;5055309;28;20037;-84
2021/12/13 04:14:33;;;;;;;3.45;2.05;;;;;;;7.63;77.68;102217.94;5052247;28;20045;-84
2021/12/13 04:17:05;;;;;;;1.98;1.45;;;;;;;7.62;78.11;102221.34;5056035;28;20037;-84
2021/12/13 04:19:48;;;;;;;1.90;1.60;;;;;;;7.63;78.04;102223.97;5061326;28;20094;-84
2021/12/13 04:22:17;;;;;;;1.65;1.13;;;;;;;7.65;77.94;102227.44;5056787;28;20028;-84
2021/12/13 04:24:51;;;;;;;2.78;1.67;;;;;;;7.67;77.73;102230.06;5050703;28;20045;-84
2021/12/13 04:27:21;;;;;;;3.92;1.60;;;;;;;7.74;76.70;102224.09;5050600;28;20036;-84
2021/12/13 04:29:50;;;;;;;2.47;1.55;;;;;;;7.76;77.24;102217.22;5052565;28;20025;-84
2021/12/13 04:32:20;;;;;;;3.53;1.85;;;;;;;7.69;77.30;102218.00;5057922;28;20495;-84
2021/12/13 04:34:46;;;;;;;3.20;1.85;;;;;;;7.66;77.76;102223.16;5057899;28;20044;-84
2021/12/13 04:37:18;;;;;;;3.97;1.40;;;;;;;7.80;77.21;102219.03;5045208;28;20080;-84
2021/12/13 04:39:53;;;;;;;2.47;1.50;;;;;;;7.81;76.06;102225.06;5050534;28;20086;-84
2021/12/13 04:42:21;;;;;;;2.20;1.23;;;;;;;7.77;76.77;102224.16;5050599;28;20033;-84
2021/12/13 04:44:53;;;;;;;2.08;1.13;;;;;;;7.78;76.61;102227.63;5038779;28;20105;-84
2021/12/13 04:47:24;;;;;;;2.40;1.40;;;;;;;7.75;76.90;102220.69;5052972;28;20379;-84
2021/12/13 04:50:09;;;;;;;2.33;1.40;;;;;;;7.78;76.21;102222.44;5051981;28;20120;-84
2021/12/13 04:52:35;;;;;;;3.40;1.65;;;;;;;7.79;77.02;102221.59;5047509;28;20093;-84
2021/12/13 04:55:07;;;;;;;2.83;1.38;;;;;;;7.86;76.05;102228.56;5059794;28;20405;-84
2021/12/13 04:57:33;;;;;;;4.00;1.55;;;;;;;7.68;77.23;102237.84;5072410;28;20051;-84
2021/12/13 05:00:06;;;;;;;1.50;1.15;;;;;;;7.74;77.53;102231.00;5055683;28;20037;-84
2021/12/13 05:02:32;;;;;;;2.75;1.20;;;;;;;7.73;77.03;102235.34;5052586;28;20031;-84
2021/12/13 05:05:02;;;;;;;1.90;1.25;;;;;;;7.76;76.96;102243.09;5054425;28;20033;-84
2021/12/13 05:07:31;;;;;;;1.90;1.20;;;;;;;7.79;77.47;102245.72;5054841;28;20041;-84
2021/12/13 05:09:57;;;;;;;1.65;1.20;;;;;;;7.73;77.27;102243.09;5047750;28;20128;-84
2021/12/13 05:12:26;;;;;;;1.63;1.40;;;;;;;7.89;76.11;102241.56;5054515;28;20040;-83
2021/12/13 05:15:09;;;;;;;2.15;1.40;;;;;;;7.79;76.82;102245.72;5053409;28;20390;-83
2021/12/13 05:17:43;;;;;;;3.33;1.30;;;;;;;7.86;76.41;102239.81;5043368;28;20016;-84
2021/12/13 05:20:16;;;;;;;3.80;1.48;;;;;;;7.90;75.59;102239.00;5062610;28;20025;-84
2021/12/13 05:22:55;;;;;;;2.05;1.63;;;;;;;7.82;76.25;102232.84;5054302;28;20120;-84
2021/12/13 05:25:56;;;;;;;6.20;1.80;;;;;;;7.87;76.05;102232.91;5055474;28;20063;-84
2021/12/13 05:28:30;;;;;;;2.65;1.40;;;;;;;7.89;76.22;102229.50;5056822;28;20131;-84
2021/12/13 05:31:04;;;;;;;1.98;1.33;;;;;;;7.83;75.84;102229.41;5061729;28;20115;-85
2021/12/13 05:33:34;;;;;;;5.50;1.93;;;;;;;7.86;76.45;102232.03;5052258;28;20127;-84
2021/12/13 05:36:04;;;;;;;2.28;1.77;;;;;;;7.78;76.74;102230.19;5052319;28;20036;-84
2021/12/13 05:38:34;;;;;;;1.75;1.38;;;;;;;7.86;76.39;102232.03;5058460;28;20032;-83
2021/12/13 05:41:05;;;;;;;1.80;1.25;;;;;;;7.86;76.16;102232.03;5059472;28;20037;-84
2021/12/13 05:43:37;;;;;;;4.03;1.63;;;;;;;7.84;76.57;102233.75;5060203;28;20374;-84
2021/12/13 05:46:06;;;;;;;3.05;2.03;;;;;;;7.83;75.86;102229.41;5062808;28;20075;-84
2021/12/13 05:48:34;;;;;;;1.98;1.35;;;;;;;7.92;76.03;102237.28;5047742;28;20033;-84
2021/12/13 05:51:04;;;;;;;2.33;1.45;;;;;;;7.93;75.58;102228.69;5055735;28;20059;-84
2021/12/13 05:53:51;;;;;;;2.08;1.45;;;;;;;7.89;75.73;102233.78;5059710;28;20032;-84
2021/12/13 05:56:19;;;;;;;2.00;1.42;;;;;;;7.97;75.29;102234.78;5058308;28;20065;-84
2021/12/13 05:58:48;;;;;;;2.38;1.60;;;;;;;7.92;75.79;102237.28;5058975;28;20044;-84
2021/12/13 06:01:17;;;;;;;8.07;5.45;;;;;;;7.86;76.08;102238.94;5048225;28;20071;-84
2021/12/13 06:03:51;;;;;;;7.70;5.03;;;;;;;7.78;76.65;102236.25;5058863;28;20037;-84
2021/12/13 06:06:21;;;;;;;4.72;2.85;;;;;;;7.79;76.22;102244.88;5076529;28;20102;-84
2021/12/13 06:08:52;;;;;;;4.18;2.20;;;;;;;7.83;76.33;102238.88;5058501;28;20055;-84
2021/12/13 06:11:28;;;;;;;3.28;1.77;;;;;;;7.76;77.13;102244.84;5061069;28;20049;-84
2021/12/13 06:13:57;;;;;;;3.45;1.48;;;;;;;7.80;76.61;102252.66;5050618;28;20040;-84
2021/12/13 06:16:22;;;;;;;1.80;1.38;;;;;;;7.81;76.22;102251.81;5058768;28;20082;-84
2021/12/13 06:18:57;;;;;;;2.00;1.55;;;;;;;7.82;76.19;102255.28;5055404;28;20036;-84
2021/12/13 06:21:59;;;;;;;3.70;1.65;;;;;;;7.82;76.68;102252.69;5059296;28;20044;-84
2021/12/13 06:24:29;;;;;;;2.67;1.58;;;;;;;7.81;76.61;102250.94;5055697;28;20056;-84
2021/12/13 06:27:16;;;;;;;2.50;1.55;;;;;;;7.87;75.90;102249.31;5031859;28;20036;-84
2021/12/13 06:30:21;;;;;;;3.70;1.58;;;;;;;7.87;76.24;102254.50;5051269;28;20029;-84
2021/12/13 06:32:53;;;;;;;2.33;1.60;;;;;;;7.84;75.99;102248.41;5044914;28;20056;-84
2021/12/13 06:35:49;;;;;;;3.53;1.77;;;;;;;7.90;75.89;102249.34;5060104;28;20504;-84
2021/12/13 06:38:30;;;;;;;4.18;1.70;;;;;;;7.90;76.40;102244.19;5060096;28;20065;-84
2021/12/13 06:41:01;;;;;;;3.35;2.53;;;;;;;7.86;76.37;102247.56;5058745;28;20537;-84
2021/12/13 06:43:39;;;;;;;3.35;1.85;;;;;;;7.91;76.27;102251.06;5052756;28;20124;-84
2021/12/13 06:46:12;;;;;;;3.78;1.95;;;;;;;7.92;75.73;102250.22;5049658;28;20041;-85
2021/12/13 06:48:40;;;;;;;3.20;1.65;;;;;;;7.86;75.99;102254.44;5067936;28;20052;-84
2021/12/13 06:51:09;;;;;;;3.38;2.05;;;;;;;7.92;75.75;102257.13;5062111;28;20412;-84
2021/12/13 06:53:35;;;;;;;2.42;2.22;;;;;;;7.91;75.79;102255.41;5053213;28;20033;-84
2021/12/13 06:56:21;;;;;;;4.55;2.58;;;;;;;7.87;76.10;102259.66;5050495;28;20048;-84
2021/12/13 06:58:58;;;;;;;8.20;4.32;;;;;;;7.84;76.16;102262.22;5046719;28;20040;-84
2021/12/13 07:01:26;;;;;;;16.23;12.40;;;;;;;7.90;75.72;102259.72;5059660;28;20037;-84
2021/12/13 07:04:20;;;;;;;7.68;6.20;;;;;;;7.91;75.98;102266.59;5058705;28;20037;-84
2021/12/13 07:06:46;;;;;;;3.70;2.80;;;;;;;7.90;75.45;102257.13;5048078;28;20052;-84
2021/12/13 07:09:19;;;;;;;2.85;1.90;;;;;;;7.89;76.09;102260.53;5053274;28;20179;-84
2021/12/13 07:11:47;;;;;;;4.90;2.10;;;;;;;7.88;76.00;102258.78;5050989;28;20041;-84
2021/12/13 07:14:16;;;;;;;3.15;2.15;;;;;;;7.83;76.18;102257.00;5075158;28;20049;-84
2021/12/13 07:16:52;;;;;;;4.00;1.58;;;;;;;7.83;75.86;102262.16;5055946;28;20032;-84
2021/12/13 07:19:25;;;;;;;2.58;1.60;;;;;;;7.86;75.68;102259.63;5058463;28;20036;-84
2021/12/13 07:22:02;;;;;;;5.75;2.20;;;;;;;7.86;75.86;102259.63;5049678;28;20505;-84
2021/12/13 07:24:30;;;;;;;3.55;1.48;;;;;;;7.78;76.43;102259.53;5049990;28;20055;-84
2021/12/13 07:27:04;;;;;;;2.83;1.52;;;;;;;7.72;76.42;102262.03;5056825;28;20021;-84
2021/12/13 07:29:52;;;;;;;3.38;2.17;;;;;;;7.77;76.68;102272.44;5051039;28;20024;-84
2021/12/13 07:32:37;;;;;;;4.28;1.85;;;;;;;7.82;76.34;102274.22;5054730;28;20064;-84
2021/12/13 07:35:12;;;;;;;2.25;1.70;;;;;;;7.89;76.31;102275.19;5055915;28;20040;-84
2021/12/13 07:37:40;;;;;;;;;;;;;;;7.81;76.42;102276.81;5041812;28;20414;-84
2021/12/13 07:40:18;;;;;;;3.88;1.52;;;;;;;7.75;76.92;102276.72;5052821;28;19920;-84
2021/12/13 07:42:58;;;;;;;3.17;1.70;;;;;;;7.70;77.21;102285.28;5056983;28;20451;-84
2021/12/13 07:45:37;;;;;;;5.10;1.88;;;;;;;7.73;76.94;102288.78;5057128;28;20032;-84
2021/12/13 07:48:08;;;;;;;3.08;1.70;;;;;;;7.81;76.70;102289.75;5051212;28;20040;-84
2021/12/13 07:50:34;;;;;;;4.53;1.83;;;;;;;7.83;76.61;102298.38;5049976;28;20033;-84
2021/12/13 07:53:03;;;;;;;3.00;1.48;;;;;;;7.79;76.82;102296.63;5053602;28;20155;-84
2021/12/13 07:55:31;;;;;;;2.65;1.80;;;;;;;7.61;77.63;102299.81;5049337;28;20033;-84
2021/12/13 07:58:02;;;;;;;2.63;1.90;;;;;;;7.72;77.23;102298.25;5055694;28;20443;-84
2021/12/13 08:00:35;;;;;;;2.70;1.75;;;;;;;7.67;77.50;102308.50;5057390;28;20072;-84
2021/12/13 08:03:15;;;;;;;3.65;1.92;;;;;;;7.76;76.89;102312.94;5058667;28;20028;-84
2021/12/13 08:05:48;;;;;;;2.60;1.92;;;;;;;7.84;76.25;102313.06;5058775;28;20228;-84
2021/12/13 08:08:24;;;;;;;6.35;2.05;;;;;;;7.87;76.19;102313.13;5052442;28;20040;-84
2021/12/13 08:10:52;;;;;;;3.22;2.05;;;;;;;7.88;76.79;102313.13;5049914;28;20037;-84
2021/12/13 08:13:32;;;;;;;3.58;2.00;;;;;;;7.94;75.58;102315.81;5050522;28;20090;-84
2021/12/13 08:16:02;;;;;;;3.60;1.73;;;;;;;7.98;75.71;102314.13;5058307;28;20097;-84
2021/12/13 08:18:32;;;;;;;5.28;2.40;;;;;;;7.96;75.15;102318.44;5058761;28;20072;-84
2021/12/13 08:21:07;;;;;;;4.47;2.17;;;;;;;7.94;75.17;102322.72;5051159;28;20510;-84
2021/12/13 08:23:38;;;;;;;3.75;2.28;;;;;;;7.97;75.77;102327.94;5037851;28;20020;-84
2021/12/13 08:26:08;;;;;;;3.13;2.15;;;;;;;8.00;75.55;102334.00;5046859;28;20045;-85
2021/12/13 08:28:40;;;;;;;3.60;2.15;;;;;;;7.90;76.07;102345.09;5056676;28;20675;-84
2021/12/13 08:31:09;;;;;;;4.30;2.40;;;;;;;7.95;75.88;102340.84;5061183;28;20118;-84
2021/12/13 08:33:44;;;;;;;3.80;1.95;;;;;;;7.89;76.35;102345.91;5050230;28;20128;-84
2021/12/13 08:36:10;;;;;;;;;;;;;;;7.89;76.11;102356.28;5049923;28;20049;-84
2021/12/13 08:38:43;;;;;;;3.47;2.03;;;;;;;7.88;77.14;102354.53;5070419;28;19912;-84
2021/12/13 08:41:15;;;;;;;4.13;2.70;;;;;;;7.87;76.97;102354.50;5058037;28;20029;-84
2021/12/13 08:43:55;;;;;;;4.72;2.20;;;;;;;7.92;77.27;102361.50;5053651;28;20048;-84
2021/12/13 08:46:56;;;;;;;25.50;11.63;;;;;;;7.94;77.60;102361.53;5048958;28;20041;-84
2021/12/13 08:49:25;;;;;;;34.13;15.90;;;;;;;7.97;77.36;102370.19;5047984;28;20642;-84
2021/12/13 08:51:57;;;;;;;25.23;11.68;;;;;;;8.04;76.77;102361.69;5050763;28;20110;-84
2021/12/13 08:54:42;;;;;;;11.68;6.40;;;;;;;7.99;77.43;102365.06;5045182;28;20064;-84
2021/12/13 08:57:12;;;;;;;8.82;4.35;;;;;;;7.96;77.29;102363.28;5062459;28;20024;-84
2021/12/13 08:59:49;;;;;;;7.35;3.13;;;;;;;7.98;77.86;102365.88;5056102;28;20469;-84
2021/12/13 09:02:15;;;;;;;4.70;2.78;;;;;;;8.01;78.02;102365.94;5059002;28;20047;-84
2021/12/13 09:04:54;;;;;;;4.93;2.35;;;;;;;8.02;77.59;102363.38;5054513;28;20047;-84
2021/12/13 09:07:21;;;;;;;5.18;2.10;;;;;;;8.02;77.45;102363.38;5061093;28;20053;-84
2021/12/13 09:09:47;;;;;;;4.13;2.00;;;;;;;8.06;77.78;102362.56;5066691;28;20037;-84
2021/12/13 09:12:24;;;;;;;2.83;1.80;;;;;;;8.09;76.89;102361.72;5050630;28;20417;-84
2021/12/13 09:14:53;;;;;;;2.95;1.88;;;;;;;8.19;77.17;102361.91;5050347;28;20044;-83
2021/12/13 09:17:21;;;;;;;4.60;1.90;;;;;;;8.19;77.16;102367.09;5058988;28;20053;-84
2021/12/13 09:19:58;;;;;;;4.55;2.08;;;;;;;8.29;77.11;102359.44;5060696;28;20036;-84
2021/12/13 09:22:53;;;;;;;3.22;2.00;;;;;;;8.21;77.13;102365.38;5062246;28;20097;-84
2021/12/13 09:25:40;;;;;;;3.13;1.80;;;;;;;8.30;76.87;102355.97;5035257;28;20053;-84
2021/12/13 09:28:19;;;;;;;8.27;2.08;;;;;;;8.24;77.32;102360.25;5055637;28;20103;-84
2021/12/13 09:30:50;;;;;;;4.45;2.58;;;;;;;8.29;77.33;102357.72;5045291;28;20041;-84
2021/12/13 09:33:33;;;;;;;2.80;1.75;;;;;;;8.31;77.00;102368.09;5056792;28;20406;-84
2021/12/13 09:36:12;;;;;;;4.65;2.33;;;;;;;8.33;76.17;102372.47;5060059;28;20031;-83
2021/12/13 09:38:47;;;;;;;3.60;1.90;;;;;;;8.34;76.98;102371.63;5060846;28;20036;-84
2021/12/13 09:41:15;;;;;;;2.78;2.00;;;;;;;8.32;77.20;102375.91;5050605;28;20037;-84
2021/12/13 09:43:46;;;;;;;2.90;1.75;;;;;;;8.33;77.94;102369.88;5055105;28;20059;-84
2021/12/13 09:46:14;;;;;;;3.97;2.50;;;;;;;8.36;77.38;102369.03;5057061;28;20052;-84
2021/12/13 09:48:44;;;;;;;4.40;2.10;;;;;;;8.35;77.48;102362.16;5049597;28;20515;-84
2021/12/13 09:51:18;;;;;;;3.30;1.90;;;;;;;8.36;77.19;102364.75;5056189;28;20095;-84
2021/12/13 09:53:48;;;;;;;4.05;1.60;;;;;;;8.38;77.09;102368.25;5061478;28;20028;-84
2021/12/13 09:56:16;;;;;;;3.35;1.98;;;;;;;8.35;77.49;102364.75;5051831;28;20037;-84
2021/12/13 09:58:48;;;;;;;3.47;1.90;;;;;;;8.38;77.01;102367.38;5058797;28;20032;-84
2021/12/13 10:01:16;;;;;;;3.38;1.75;;;;;;;8.39;77.34;102364.78;5056730;28;20037;-84
2021/12/13 10:03:50;;;;;;;3.10;2.13;;;;;;;8.43;77.62;102371.75;5060546;28;20085;-84
2021/12/13 10:06:20;;;;;;;4.15;2.33;;;;;;;8.44;77.93;102362.28;5059411;28;20041;-84
2021/12/13 10:09:11;;;;;;;1.92;1.45;;;;;;;8.46;77.02;102364.03;5056465;28;20437;-84
2021/12/13 10:11:47;;;;;;;4.63;2.35;;;;;;;8.45;77.32;102362.28;5049379;28;20047;-84
2021/12/13 10:14:15;;;;;;;2.15;1.60;;;;;;;8.50;77.33;102358.06;5069013;28;20029;-85
2021/12/13 10:16:43;;;;;;;3.03;2.03;;;;;;;8.55;77.49;102358.97;5056405;28;20551;-84
2021/12/13 10:19:14;;;;;;;2.63;1.65;;;;;;;8.55;76.68;102355.50;5055988;28;20141;-84
2021/12/13 10:21:43;;;;;;;4.82;2.00;;;;;;;8.56;76.56;102358.09;5046594;28;20041;-84
2021/12/13 10:24:34;;;;;;;3.67;2.05;;;;;;;8.55;76.44;102353.78;5052229;28;20025;-84
2021/12/13 10:27:03;;;;;;;4.78;2.80;;;;;;;8.63;75.76;102356.47;5054530;28;20032;-84
2021/12/13 10:29:30;;;;;;;4.13;2.28;;;;;;;8.63;75.95;102362.50;5055830;28;20041;-85
2021/12/13 10:32:00;;;;;;;2.70;1.83;;;;;;;8.64;75.99;102363.38;5056835;28;20029;-84
2021/12/13 10:34:33;;;;;;;3.00;1.83;;;;;;;8.64;75.33;102358.22;5058063;28;20033;-84
2021/12/13 10:37:12;;;;;;;3.28;1.85;;;;;;;8.65;75.64;102350.44;5067644;28;20513;-84
2021/12/13 10:39:46;;;;;;;3.13;2.03;;;;;;;8.69;75.40;102357.41;5051245;28;20029;-85
2021/12/13 10:42:21;;;;;;;4.05;2.33;;;;;;;8.69;75.74;102356.53;5052555;28;20029;-84
2021/12/13 10:44:47;;;;;;;3.10;2.00;;;;;;;8.72;75.49;102349.69;5057452;28;20028;-84
2021/12/13 10:47:44;;;;;;;5.05;1.90;;;;;;;8.73;74.73;102351.44;5051205;28;20110;-84
2021/12/13 10:50:16;;;;;;;4.97;2.25;;;;;;;8.77;75.32;102353.19;5045025;28;20041;-84
2021/12/13 10:52:48;;;;;;;3.97;2.05;;;;;;;8.74;75.81;102357.47;5053265;28;20040;-84
2021/12/13 10:55:22;;;;;;;4.85;2.97;;;;;;;8.76;75.33;102358.34;5051716;28;20066;-84
2021/12/13 10:57:48;;;;;;;3.53;1.92;;;;;;;8.73;75.71;102356.59;5055079;28;20116;-84
2021/12/13 11:00:22;;;;;;;4.32;2.10;;;;;;;8.70;75.43;102356.56;5055395;28;20033;-84
2021/12/13 11:02:53;;;;;;;7.28;2.58;;;;;;;8.76;75.04;102364.41;5061462;28;20020;-84
2021/12/13 11:05:20;;;;;;;4.60;2.25;;;;;;;8.71;74.86;102357.44;5050635;28;20048;-84
2021/12/13 11:07:48;;;;;;;5.85;2.25;;;;;;;8.72;75.09;102357.44;5051070;28;20066;-84
2021/12/13 11:10:23;;;;;;;7.90;2.25;;;;;;;8.76;75.49;102355.78;5056478;28;20069;-84
2021/12/13 11:12:52;;;;;;;6.07;2.72;;;;;;;8.78;75.58;102347.16;5057585;28;20029;-84
2021/12/13 11:15:35;;;;;;;4.97;2.15;;;;;;;8.69;75.05;102352.22;5056456;28;20036;-84
2021/12/13 11:18:03;;;;;;;3.50;1.75;;;;;;;8.75;75.37;102354.88;5062819;28;20037;-84
2021/12/13 11:20:46;;;;;;;3.92;1.70;;;;;;;8.75;74.76;102360.06;5052784;28;20024;-84
2021/12/13 11:23:14;;;;;;;3.30;1.92;;;;;;;8.76;75.49;102346.28;5054491;28;20122;-84
2021/12/13 11:25:44;;;;;;;8.23;2.17;;;;;;;8.80;74.79;102350.63;5056289;28;20024;-85
2021/12/13 11:28:12;;;;;;;5.70;2.60;;;;;;;8.79;75.62;102341.13;5059003;28;20037;-84
2021/12/13 11:30:39;;;;;;;3.95;2.45;;;;;;;8.80;75.06;102342.84;5053371;28;20105;-84
2021/12/13 11:33:29;;;;;;;3.60;2.22;;;;;;;8.82;75.62;102345.47;5054620;28;20021;-84
2021/12/13 11:36:07;;;;;;;3.25;2.17;;;;;;;8.84;75.30;102342.88;5051963;28;20021;-84
2021/12/13 11:39:06;;;;;;;5.57;2.15;;;;;;;8.89;74.70;102336.06;5057204;28;20012;-85
2021/12/13 11:41:50;;;;;;;3.38;1.70;;;;;;;8.93;74.65;102343.88;5057606;28;20040;-85
2021/12/13 11:44:53;;;;;;;3.13;2.03;;;;;;;8.94;75.09;102342.16;5053493;28;20462;-85
2021/12/13 11:47:51;;;;;;;3.00;2.28;;;;;;;8.95;75.30;102341.31;5046599;28;20105;-84
2021/12/13 11:50:44;;;;;;;3.30;2.17;;;;;;;8.92;75.12;102338.69;5049767;28;20066;-85
2021/12/13 11:53:47;;;;;;;5.63;2.50;;;;;;;8.89;74.99;102339.50;5055862;28;20731;-85
2021/12/13 11:56:47;;;;;;;5.07;1.90;;;;;;;8.90;74.96;102335.19;5052276;28;20398;-84
2021/12/13 11:59:39;;;;;;;6.25;2.47;;;;;;;8.90;75.48;102330.00;5060144;28;20045;-85
2021/12/13 12:02:38;;;;;;;3.95;2.42;;;;;;;8.90;75.11;102337.78;5048390;28;20037;-85
2021/12/13 12:05:48;;;;;;;4.68;2.28;;;;;;;8.95;75.39;102334.38;5020845;28;20030;-84
2021/12/13 12:08:38;;;;;;;5.45;2.22;;;;;;;8.93;74.43;102332.63;5054048;28;20032;-85
2021/12/13 12:11:40;;;;;;;4.70;1.85;;;;;;;8.96;76.02;102327.47;5054447;28;20041;-85
2021/12/13 12:14:10;;;;;;;3.08;1.38;;;;;;;8.97;74.75;102335.28;5057167;28;20390;-85
2021/12/13 12:16:41;;;;;;;2.90;0.88;;;;;;;8.99;73.28;102324.91;5049403;28;20485;-84
2021/12/13 12:19:21;;;;;;;4.95;0.70;;;;;;;9.06;72.53;102327.59;5047365;28;20037;-85